createdAt,value
2022-08-07T00:01:43.260Z,16.67
2022-08-07T00:03:51.630Z,15.75
2022-08-07T00:06:18.425Z,18.05
2022-08-07T00:08:57.326Z,17.65
2022-08-07T00:11:48.101Z,16.33
2022-08-07T00:14:25.362Z,18.92
2022-08-07T00:16:55.267Z,16.77
2022-08-07T00:19:26.112Z,17.23
2022-08-07T00:22:03.571Z,18.02
2022-08-07T00:24:31.599Z,18.13
2022-08-07T00:27:07.198Z,17.58
2022-08-07T00:29:34.437Z,18.33
2022-08-07T00:32:05.833Z,19.23
2022-08-07T00:34:33.428Z,18.45
2022-08-07T00:37:02.812Z,19.63
2022-08-07T00:39:33.274Z,19.10
2022-08-07T00:42:02.564Z,18.33
2022-08-07T00:44:33.236Z,18.35
2022-08-07T00:47:01.582Z,20.40
2022-08-07T00:50:18.944Z,21.40
2022-08-07T00:52:17.492Z,21.90
2022-08-07T00:54:44.376Z,20.98
2022-08-07T00:57:12.583Z,22.88
2022-08-07T00:59:42.105Z,20.38
2022-08-07T01:02:20.298Z,24.00
2022-08-07T01:04:58.862Z,22.02
2022-08-07T01:07:27.797Z,22.98
2022-08-07T01:10:06.602Z,22.08
2022-08-07T01:12:53.382Z,19.67
2022-08-07T01:15:36.128Z,22.27
2022-08-07T01:18:10.925Z,23.00
2022-08-07T01:20:58.489Z,22.67
2022-08-07T01:23:36.861Z,25.27
2022-08-07T01:26:12.181Z,21.35
2022-08-07T01:28:45.823Z,21.17
2022-08-07T01:31:17.739Z,22.10
2022-08-07T01:33:55.758Z,20.85
2022-08-07T01:36:33.334Z,22.10
2022-08-07T01:39:10.052Z,24.65
2022-08-07T01:42:07.134Z,22.88
2022-08-07T01:44:30.206Z,21.65
2022-08-07T01:46:58.550Z,22.23
2022-08-07T01:49:32.011Z,22.13
2022-08-07T01:52:04.772Z,20.10
2022-08-07T01:54:38.463Z,21.88
2022-08-07T01:57:24.222Z,19.08
2022-08-07T02:00:13.005Z,22.65
2022-08-07T02:03:19.222Z,19.75
2022-08-07T02:06:01.062Z,22.00
2022-08-07T02:08:37.801Z,21.10
2022-08-07T02:11:07.471Z,18.40
2022-08-07T02:13:56.456Z,21.42
2022-08-07T02:16:29.924Z,18.63
2022-08-07T02:19:05.753Z,19.13
2022-08-07T02:21:55.431Z,20.20
2022-08-07T02:24:24.679Z,18.55
2022-08-07T02:26:54.261Z,19.35
2022-08-07T02:29:22.065Z,18.85
2022-08-07T02:31:51.342Z,19.10
2022-08-07T02:34:21.279Z,19.17
2022-08-07T02:36:53.327Z,18.23
2022-08-07T02:39:43.890Z,16.92
2022-08-07T02:42:14.767Z,16.15
2022-08-07T02:44:48.871Z,15.85
2022-08-07T02:47:23.439Z,17.13
2022-08-07T02:49:57.550Z,17.45
2022-08-07T02:52:52.731Z,17.75
2022-08-07T02:58:12.053Z,15.23
2022-08-07T03:00:47.012Z,17.08
2022-08-07T03:03:22.897Z,14.73
2022-08-07T03:05:54.142Z,17.13
2022-08-07T03:08:26.805Z,17.63
2022-08-07T03:10:58.260Z,15.68
2022-08-07T03:13:38.797Z,15.32
2022-08-07T03:16:08.254Z,19.05
2022-08-07T03:18:36.452Z,19.17
2022-08-07T03:21:08.642Z,15.13
2022-08-07T03:26:34.837Z,19.80
2022-08-07T03:29:11.094Z,17.33
2022-08-07T03:31:46.233Z,19.35
2022-08-07T03:34:18.229Z,19.67
2022-08-07T03:36:50.017Z,20.90
2022-08-07T03:39:18.217Z,16.92
2022-08-07T03:42:06.826Z,16.10
2022-08-07T03:44:38.562Z,19.63
2022-08-07T03:47:10.937Z,16.85
2022-08-07T03:49:40.363Z,17.80
2022-08-07T03:52:22.295Z,16.85
2022-08-07T03:54:54.314Z,17.27
2022-08-07T03:58:33.953Z,16.50
2022-08-07T04:00:12.014Z,17.27
2022-08-07T04:02:47.225Z,16.00
2022-08-07T04:05:23.980Z,17.95
2022-08-07T04:07:57.382Z,16.38
2022-08-07T04:10:27.759Z,16.45
2022-08-07T04:12:57.161Z,15.63
2022-08-07T04:15:27.051Z,16.38
2022-08-07T04:18:58.005Z,17.00
2022-08-07T04:20:54.829Z,16.05
2022-08-07T04:23:24.312Z,15.93
2022-08-07T04:26:10.697Z,16.70
2022-08-07T04:28:40.923Z,15.60
2022-08-07T04:31:10.517Z,15.50
2022-08-07T04:33:55.025Z,17.30
2022-08-07T04:36:26.264Z,17.73
2022-08-07T04:38:54.119Z,14.05
2022-08-07T04:41:21.004Z,14.07
2022-08-07T04:44:12.056Z,16.35
2022-08-07T04:47:08.284Z,17.27
2022-08-07T04:50:05.910Z,15.18
2022-08-07T04:52:51.743Z,17.10
2022-08-07T04:58:11.442Z,17.50
2022-08-07T05:01:46.957Z,16.67
2022-08-07T05:04:43.915Z,14.80
2022-08-07T05:07:36.793Z,15.65
2022-08-07T05:10:13.931Z,14.27
2022-08-07T05:13:10.115Z,15.20
2022-08-07T05:15:59.929Z,14.13
2022-08-07T05:18:36.649Z,13.30
2022-08-07T05:21:09.709Z,11.52
2022-08-07T05:23:48.288Z,12.55
2022-08-07T05:26:24.188Z,9.52
2022-08-07T05:28:59.130Z,9.48
2022-08-07T05:31:35.038Z,10.55
2022-08-07T05:34:11.234Z,8.85
2022-08-07T05:36:43.693Z,12.50
2022-08-07T05:40:16.723Z,7.72
2022-08-07T05:42:12.455Z,9.25
2022-08-07T05:44:53.038Z,6.90
2022-08-07T05:47:38.185Z,9.82
2022-08-07T05:50:18.610Z,7.85
2022-08-07T05:52:45.825Z,7.75
2022-08-07T05:55:16.736Z,6.88
2022-08-07T05:57:47.446Z,6.50
2022-08-07T06:00:17.889Z,6.03
2022-08-07T06:02:57.785Z,7.65
2022-08-07T06:05:28.786Z,6.30
2022-08-07T06:08:12.339Z,8.63
2022-08-07T06:10:43.415Z,7.88
2022-08-07T06:13:13.633Z,6.10
2022-08-07T06:15:44.253Z,6.43
2022-08-07T06:18:19.363Z,5.30
2022-08-07T06:20:49.873Z,7.05
2022-08-07T06:24:37.908Z,6.88
2022-08-07T06:26:27.455Z,5.82
2022-08-07T06:28:57.946Z,7.13
2022-08-07T06:31:46.645Z,5.28
2022-08-07T06:34:14.660Z,7.30
2022-08-07T06:36:41.848Z,5.40
2022-08-07T06:40:15.683Z,4.63
2022-08-07T06:42:04.621Z,5.25
2022-08-07T06:44:51.892Z,5.07
2022-08-07T06:47:21.066Z,4.40
2022-08-07T06:49:52.099Z,4.93
2022-08-07T06:52:35.752Z,4.38
2022-08-07T06:55:33.827Z,4.05
2022-08-07T06:58:00.451Z,4.20
2022-08-07T07:00:34.551Z,5.05
2022-08-07T07:03:08.725Z,5.72
2022-08-07T07:06:04.150Z,4.10
2022-08-07T07:08:28.744Z,4.00
2022-08-07T07:10:56.686Z,5.32
2022-08-07T07:13:41.617Z,4.75
2022-08-07T07:16:27.502Z,4.13
2022-08-07T07:19:11.231Z,4.50
2022-08-07T07:22:05.431Z,4.97
2022-08-07T07:24:36.535Z,3.75
2022-08-07T07:27:05.730Z,5.82
2022-08-07T07:29:56.147Z,5.32
2022-08-07T07:32:25.632Z,4.32
2022-08-07T07:34:57.715Z,3.75
2022-08-07T07:37:47.368Z,3.88
2022-08-07T07:40:17.285Z,4.50
2022-08-07T07:42:54.287Z,4.80
2022-08-07T07:46:37.326Z,5.25
2022-08-07T07:51:07.782Z,5.07
2022-08-07T07:53:51.705Z,5.80
2022-08-07T07:56:30.370Z,5.70
2022-08-07T07:59:01.950Z,4.85
2022-08-07T08:02:02.666Z,4.15
2022-08-07T08:04:19.657Z,6.32
2022-08-07T08:06:53.367Z,7.38
2022-08-07T08:09:24.127Z,4.90
2022-08-07T08:12:02.531Z,6.50
2022-08-07T08:14:32.527Z,6.57
2022-08-07T08:17:55.952Z,7.38
2022-08-07T08:20:18.691Z,4.18
2022-08-07T08:23:00.157Z,3.50
2022-08-07T08:25:49.355Z,4.47
2022-08-07T08:28:37.225Z,4.22
2022-08-07T08:31:06.578Z,4.30
2022-08-07T08:33:34.953Z,4.53
2022-08-07T08:36:03.412Z,6.50
2022-08-07T08:38:41.143Z,4.55
2022-08-07T08:41:58.499Z,7.95
2022-08-07T08:44:44.370Z,3.22
2022-08-07T08:47:27.225Z,3.40
2022-08-07T08:50:34.964Z,3.80
2022-08-07T08:53:31.968Z,4.07
2022-08-07T08:56:13.063Z,4.32
2022-08-07T08:59:12.892Z,3.90
2022-08-07T09:01:59.459Z,4.43
2022-08-07T09:04:48.231Z,2.90
2022-08-07T09:08:02.742Z,6.13
2022-08-07T09:10:37.663Z,3.53
2022-08-07T09:13:38.300Z,3.67
2022-08-07T09:16:29.729Z,3.22
2022-08-07T09:19:07.330Z,3.17
2022-08-07T09:24:33.425Z,5.25
2022-08-07T09:25:24.396Z,3.20
2022-08-07T09:30:03.472Z,4.20
2022-08-07T09:31:15.554Z,4.43
2022-08-07T09:34:10.012Z,3.90
2022-08-07T09:36:58.132Z,3.38
2022-08-07T09:39:53.739Z,3.10
2022-08-07T09:42:25.248Z,4.55
2022-08-07T09:47:23.588Z,4.97
2022-08-07T09:48:03.962Z,4.40
2022-08-07T09:52:15.299Z,3.78
2022-08-07T09:54:06.646Z,3.60
2022-08-07T09:57:17.268Z,3.92
2022-08-07T10:00:00.917Z,4.28
2022-08-07T10:04:03.138Z,3.35
2022-08-07T10:06:30.180Z,2.90
2022-08-07T10:09:34.231Z,6.80
2022-08-07T10:12:26.337Z,3.22
2022-08-07T10:15:26.893Z,3.75
2022-08-07T10:18:30.148Z,3.33
2022-08-07T10:22:12.020Z,2.85
2022-08-07T10:24:27.942Z,4.55
2022-08-07T10:27:15.737Z,2.90
2022-08-07T10:30:12.331Z,3.10
2022-08-07T10:33:07.184Z,3.95
2022-08-07T10:35:53.675Z,3.42
2022-08-07T10:38:36.131Z,2.90
2022-08-07T10:41:46.267Z,3.85
2022-08-07T10:44:16.022Z,2.90
2022-08-07T10:47:11.942Z,4.28
2022-08-07T10:49:51.261Z,3.40
2022-08-07T10:52:51.417Z,5.60
2022-08-07T10:55:53.341Z,3.00
2022-08-07T10:58:59.378Z,2.83
2022-08-07T11:01:51.184Z,3.47
2022-08-07T11:04:40.962Z,3.05
2022-08-07T11:07:59.235Z,2.80
2022-08-07T11:10:33.621Z,3.42
2022-08-07T11:13:07.148Z,3.40
2022-08-07T11:18:39.045Z,3.38
2022-08-07T11:21:18.283Z,6.57
2022-08-07T11:24:06.437Z,3.65
2022-08-07T11:27:00.311Z,3.95
2022-08-07T11:29:40.750Z,5.63
2022-08-07T11:32:26.496Z,3.27
2022-08-07T11:35:03.799Z,4.22
2022-08-07T11:37:57.549Z,3.30
2022-08-07T11:41:08.614Z,3.70
2022-08-07T11:44:11.849Z,5.18
2022-08-07T11:46:53.009Z,3.30
2022-08-07T11:50:11.376Z,2.13
2022-08-07T11:53:02.398Z,2.58
2022-08-07T11:56:27.636Z,3.85
2022-08-07T12:00:12.090Z,4.18
2022-08-07T12:02:52.392Z,1.98
2022-08-07T12:05:41.638Z,4.18
2022-08-07T12:08:25.822Z,2.78
2022-08-07T12:11:20.197Z,3.60
2022-08-07T12:13:59.400Z,3.17
2022-08-07T12:16:33.073Z,2.25
2022-08-07T12:19:06.721Z,4.07
2022-08-07T12:22:38.056Z,2.70
2022-08-07T12:26:21.399Z,2.95
2022-08-07T12:28:56.575Z,5.03
2022-08-07T12:32:02.033Z,2.67
2022-08-07T12:34:34.533Z,3.20
2022-08-07T12:37:08.221Z,2.20
2022-08-07T12:39:51.185Z,3.08
2022-08-07T12:42:27.571Z,2.80
2022-08-07T12:44:57.870Z,2.80
2022-08-07T12:47:50.206Z,4.55
2022-08-07T12:50:33.951Z,2.50
2022-08-07T12:53:19.042Z,2.65
2022-08-07T12:56:09.091Z,4.05
2022-08-07T12:58:40.057Z,3.35
2022-08-07T13:01:21.856Z,3.15
2022-08-07T13:04:05.047Z,5.72
2022-08-07T13:07:00.682Z,2.72
2022-08-07T13:10:20.719Z,2.10
2022-08-07T13:12:56.346Z,2.90
2022-08-07T13:15:59.033Z,3.45
2022-08-07T13:18:57.006Z,2.63
2022-08-07T13:21:50.522Z,2.45
2022-08-07T13:24:26.017Z,2.45
2022-08-07T13:27:05.604Z,2.47
2022-08-07T13:30:03.456Z,3.50
2022-08-07T13:32:39.721Z,2.92
2022-08-07T13:35:21.356Z,3.30
2022-08-07T13:38:01.052Z,3.83
2022-08-07T13:40:42.729Z,2.58
2022-08-07T13:43:15.328Z,4.20
2022-08-07T13:46:16.360Z,2.05
2022-08-07T13:48:38.786Z,3.65
2022-08-07T13:51:26.916Z,4.55
2022-08-07T13:54:01.502Z,3.83
2022-08-07T13:56:35.831Z,2.92
2022-08-07T13:59:13.795Z,2.70
2022-08-07T14:02:04.057Z,3.13
2022-08-07T14:04:35.603Z,2.95
2022-08-07T14:07:10.113Z,3.03
2022-08-07T14:10:02.928Z,3.78
2022-08-07T14:12:55.916Z,2.83
2022-08-07T14:15:32.020Z,2.92
2022-08-07T14:18:24.163Z,2.30
2022-08-07T14:22:41.176Z,2.92
2022-08-07T14:24:08.782Z,2.30
2022-08-07T14:26:52.078Z,3.22
2022-08-07T14:30:10.030Z,2.33
2022-08-07T14:32:12.926Z,5.30
2022-08-07T14:34:45.926Z,3.03
2022-08-07T14:37:16.825Z,2.25
2022-08-07T14:40:17.597Z,3.63
2022-08-07T14:43:00.629Z,3.25
2022-08-07T14:48:36.657Z,3.28
2022-08-07T14:51:20.024Z,3.20
2022-08-07T14:56:39.007Z,2.92
2022-08-07T14:59:13.660Z,2.72
2022-08-07T15:02:31.776Z,2.83
2022-08-07T15:05:02.309Z,2.33
2022-08-07T15:13:19.609Z,2.20
2022-08-07T15:15:52.839Z,2.67
2022-08-07T15:18:35.836Z,3.25
2022-08-07T15:27:06.633Z,4.80
2022-08-07T15:30:06.818Z,2.42
2022-08-07T15:32:39.879Z,2.70
2022-08-07T15:36:00.400Z,2.97
2022-08-07T15:38:30.353Z,3.28
2022-08-07T15:41:23.137Z,3.75
2022-08-07T15:44:01.048Z,2.58
2022-08-07T15:46:31.582Z,2.63
2022-08-07T15:49:14.648Z,4.07
2022-08-07T15:54:31.450Z,4.30
2022-08-07T15:57:02.762Z,5.57
2022-08-07T15:59:39.927Z,2.83
2022-08-07T16:02:22.237Z,5.88
2022-08-07T16:05:03.419Z,2.45
2022-08-07T16:08:31.867Z,2.50
2022-08-07T16:10:31.228Z,3.10
2022-08-07T16:13:58.733Z,3.97
2022-08-07T16:16:48.343Z,3.67
2022-08-07T16:19:59.768Z,3.22
2022-08-07T16:22:34.022Z,4.18
2022-08-07T16:25:23.417Z,2.63
2022-08-07T16:30:05.889Z,2.88
2022-08-07T16:31:51.688Z,2.78
2022-08-07T16:34:34.074Z,2.72
2022-08-07T16:38:04.117Z,2.30
2022-08-07T16:40:28.842Z,3.67
2022-08-07T16:43:03.233Z,2.72
2022-08-07T16:46:11.033Z,2.92
2022-08-07T16:50:27.096Z,2.72
2022-08-07T16:52:51.514Z,2.60
2022-08-07T16:55:23.469Z,2.97
2022-08-07T16:58:20.307Z,2.63
2022-08-07T17:01:15.824Z,5.60
2022-08-07T17:04:00.345Z,5.28
2022-08-07T17:07:03.315Z,3.05
2022-08-07T17:10:08.441Z,5.78
2022-08-07T17:12:47.202Z,3.50
2022-08-07T17:15:13.798Z,3.30
2022-08-07T17:17:49.426Z,3.47
2022-08-07T17:20:30.873Z,2.85
2022-08-07T17:23:15.106Z,3.88
2022-08-07T17:25:55.881Z,6.05
2022-08-07T17:28:57.698Z,5.32
2022-08-07T17:31:43.959Z,3.03
2022-08-07T17:34:40.953Z,4.57
2022-08-07T17:38:13.495Z,4.80
2022-08-07T17:42:03.051Z,4.95
2022-08-07T17:44:13.673Z,3.63
2022-08-07T17:46:56.526Z,3.72
2022-08-07T17:49:44.519Z,3.85
2022-08-07T17:52:33.994Z,3.72
2022-08-07T17:55:54.174Z,3.20
2022-08-07T17:58:30.235Z,3.28
2022-08-07T18:01:02.600Z,3.17
2022-08-07T18:04:03.721Z,5.47
2022-08-07T18:06:38.942Z,4.63
2022-08-07T18:09:16.070Z,3.38
2022-08-07T18:14:46.006Z,4.00
2022-08-07T18:18:45.835Z,4.47
2022-08-07T18:21:12.640Z,3.67
2022-08-07T18:23:58.417Z,4.82
2022-08-07T18:26:42.789Z,4.38
2022-08-07T18:30:07.190Z,4.63
2022-08-07T18:32:11.611Z,3.72
2022-08-07T18:35:20.259Z,3.90
2022-08-07T18:38:58.645Z,5.32
2022-08-07T18:41:47.915Z,3.83
2022-08-07T18:45:09.180Z,7.50
2022-08-07T18:47:36.035Z,4.45
2022-08-07T18:50:38.131Z,6.13
2022-08-07T18:53:36.764Z,3.90
2022-08-07T18:56:32.512Z,5.40
2022-08-07T18:58:59.043Z,3.63
2022-08-07T19:02:19.966Z,4.55
2022-08-07T19:04:57.929Z,8.88
2022-08-07T19:07:58.674Z,6.78
2022-08-07T19:10:31.519Z,4.85
2022-08-07T19:13:11.654Z,4.80
2022-08-07T19:16:05.553Z,3.78
2022-08-07T19:18:47.657Z,5.45
2022-08-07T19:21:46.478Z,4.78
2022-08-07T19:24:43.161Z,7.55
2022-08-07T19:28:30.268Z,7.97
2022-08-07T19:31:05.188Z,8.18
2022-08-07T19:32:59.315Z,14.90
2022-08-07T19:35:33.279Z,8.93
2022-08-07T19:38:03.339Z,8.85
2022-08-07T19:40:38.259Z,6.60
2022-08-07T19:43:48.833Z,6.40
2022-08-07T19:46:12.107Z,6.05
2022-08-07T19:48:42.695Z,7.50
2022-08-07T19:51:19.337Z,5.35
2022-08-07T19:54:31.488Z,6.30
2022-08-07T19:58:00.369Z,6.10
2022-08-07T19:59:41.431Z,4.88
2022-08-07T20:02:19.257Z,4.60
2022-08-07T20:04:49.992Z,5.07
2022-08-07T20:07:23.888Z,4.75
2022-08-07T20:10:37.839Z,5.40
2022-08-07T20:12:53.929Z,4.72
2022-08-07T20:15:32.766Z,4.45
2022-08-07T20:18:06.200Z,6.45
2022-08-07T20:20:42.455Z,4.38
2022-08-07T20:23:32.808Z,4.53
2022-08-07T20:26:09.888Z,4.32
2022-08-07T20:28:39.088Z,5.70
2022-08-07T20:31:20.991Z,4.68
2022-08-07T20:33:56.520Z,4.67
2022-08-07T20:37:07.936Z,6.88
2022-08-07T20:40:33.230Z,4.30
2022-08-07T20:43:02.938Z,5.45
2022-08-07T20:46:27.190Z,5.40
2022-08-07T20:48:28.395Z,8.00
2022-08-07T20:50:58.497Z,6.15
2022-08-07T20:54:01.854Z,5.93
2022-08-07T20:56:13.037Z,6.82
2022-08-07T20:58:48.071Z,6.68
2022-08-07T21:01:22.303Z,7.45
2022-08-07T21:04:18.672Z,7.07
2022-08-07T21:06:53.225Z,6.28
2022-08-07T21:09:24.414Z,5.95
2022-08-07T21:11:57.535Z,6.10
2022-08-07T21:14:33.947Z,6.28
2022-08-07T21:18:06.117Z,6.32
2022-08-07T21:20:19.100Z,6.95
2022-08-07T21:22:59.107Z,4.88
2022-08-07T21:25:38.982Z,9.75
2022-08-07T21:28:18.873Z,5.90
2022-08-07T21:32:43.005Z,5.13
2022-08-07T21:34:45.988Z,5.35
2022-08-07T21:37:57.418Z,6.13
2022-08-07T21:40:38.964Z,4.88
2022-08-07T21:43:23.140Z,7.07
2022-08-07T21:46:32.232Z,6.78
2022-08-07T21:49:14.408Z,6.47
2022-08-07T21:52:11.561Z,4.93
2022-08-07T21:55:30.521Z,5.60
2022-08-07T21:58:03.154Z,6.47
2022-08-07T22:00:31.136Z,5.40
2022-08-07T22:03:10.747Z,6.45
2022-08-07T22:05:59.574Z,4.85
2022-08-07T22:09:07.023Z,7.13
2022-08-07T22:12:05.959Z,4.75
2022-08-07T22:14:36.356Z,5.40
2022-08-07T22:17:05.028Z,5.32
2022-08-07T22:19:57.424Z,5.25
2022-08-07T22:22:31.805Z,6.65
2022-08-07T22:25:27.096Z,4.80
2022-08-07T22:28:31.873Z,6.65
2022-08-07T22:31:12.152Z,4.95
2022-08-07T22:34:13.213Z,6.10
2022-08-07T22:36:53.162Z,5.18
2022-08-07T22:39:53.409Z,5.82
2022-08-07T22:42:25.957Z,5.43
2022-08-07T22:44:59.965Z,6.25
2022-08-07T22:47:37.984Z,5.00
2022-08-07T22:50:41.879Z,6.00
2022-08-07T22:54:05.442Z,6.88
2022-08-07T22:56:12.956Z,5.43
2022-08-07T22:59:02.445Z,6.80
2022-08-07T23:01:58.996Z,6.22
2022-08-07T23:04:58.091Z,7.43
2022-08-07T23:08:04.843Z,5.53
2022-08-07T23:10:53.663Z,6.22
2022-08-07T23:14:09.113Z,8.52
2022-08-07T23:16:48.511Z,6.25
2022-08-07T23:20:05.546Z,6.15
2022-08-07T23:22:48.855Z,5.78
2022-08-07T23:25:28.495Z,6.90
2022-08-07T23:28:22.594Z,6.13
2022-08-07T23:32:49.293Z,7.85
2022-08-07T23:34:44.153Z,7.35
2022-08-07T23:37:29.712Z,7.30
2022-08-07T23:40:14.732Z,6.20
2022-08-07T23:42:59.943Z,7.00
2022-08-07T23:46:07.581Z,7.10
2022-08-07T23:48:48.846Z,7.82
2022-08-07T23:52:59.746Z,6.63
2022-08-07T23:54:43.938Z,7.07
2022-08-07T23:57:34.740Z,7.93
